Terminal Aerodrome Forecast
Issued by NWS Wakefield, VA

Home | Current Version | Previous Version | Text Only | Print | Product List | Glossary On
Versions: 1 2 3 4 5 6 7 8 9 10 11 12 13 14 15 16 17 18 19 20 21 22
000
FTUS41 KAKQ 300529 CCA
TAFSBY
TAF COR
KSBY 300529Z 3006/3106 14004KT 2SM BR VV003
      TEMPO 3006/3010 1/2SM FG OVC002
     FM301200 18003KT P6SM BKN020
     FM301500 20009KT P6SM SCT040
     FM310000 18005KT P6SM SKC=

USA.gov is the U.S. government's official web portal to all federal, state and local government web resources and services.